sensor_id;sensor_type;location;lat;lon;timestamp;P1;durP1;ratioP1;P2;durP2;ratioP2
47860;SDS011;33620;52.340;5.984;2022-09-13T00:00:37;14.05;;;7.78;;
47860;SDS011;33620;52.340;5.984;2022-09-13T00:03:05;13.02;;;7.38;;
47860;SDS011;33620;52.340;5.984;2022-09-13T00:05:31;12.55;;;7.20;;
47860;SDS011;33620;52.340;5.984;2022-09-13T00:07:57;9.77;;;6.50;;
47860;SDS011;33620;52.340;5.984;2022-09-13T00:10:23;12.45;;;7.43;;
47860;SDS011;33620;52.340;5.984;2022-09-13T00:12:49;15.70;;;7.32;;
47860;SDS011;33620;52.340;5.984;2022-09-13T00:15:15;10.95;;;7.13;;
47860;SDS011;33620;52.340;5.984;2022-09-13T00:17:40;12.05;;;7.25;;
47860;SDS011;33620;52.340;5.984;2022-09-13T00:20:06;14.75;;;6.88;;
47860;SDS011;33620;52.340;5.984;2022-09-13T00:22:32;10.18;;;6.60;;
47860;SDS011;33620;52.340;5.984;2022-09-13T00:24:58;13.20;;;7.05;;
47860;SDS011;33620;52.340;5.984;2022-09-13T00:27:24;14.85;;;8.02;;
47860;SDS011;33620;52.340;5.984;2022-09-13T00:29:49;11.20;;;6.57;;
47860;SDS011;33620;52.340;5.984;2022-09-13T00:32:15;11.82;;;6.53;;
47860;SDS011;33620;52.340;5.984;2022-09-13T00:34:41;13.10;;;7.55;;
47860;SDS011;33620;52.340;5.984;2022-09-13T00:37:06;13.20;;;7.53;;
47860;SDS011;33620;52.340;5.984;2022-09-13T00:39:33;13.75;;;7.88;;
47860;SDS011;33620;52.340;5.984;2022-09-13T00:41:58;11.20;;;7.07;;
47860;SDS011;33620;52.340;5.984;2022-09-13T00:50:49;14.02;;;7.20;;
47860;SDS011;33620;52.340;5.984;2022-09-13T00:52:54;15.70;;;8.13;;
47860;SDS011;33620;52.340;5.984;2022-09-13T00:55:28;13.63;;;7.95;;
47860;SDS011;33620;52.340;5.984;2022-09-13T00:57:57;14.60;;;8.43;;
47860;SDS011;33620;52.340;5.984;2022-09-13T01:00:27;14.45;;;8.48;;
47860;SDS011;33620;52.340;5.984;2022-09-13T01:02:54;15.25;;;8.82;;
47860;SDS011;33620;52.340;5.984;2022-09-13T01:05:29;13.15;;;8.23;;
47860;SDS011;33620;52.340;5.984;2022-09-13T01:07:59;15.70;;;8.80;;
47860;SDS011;33620;52.340;5.984;2022-09-13T01:10:25;15.55;;;8.73;;
47860;SDS011;33620;52.340;5.984;2022-09-13T01:12:58;14.18;;;8.48;;
47860;SDS011;33620;52.340;5.984;2022-09-13T01:15:29;17.27;;;9.15;;
47860;SDS011;33620;52.340;5.984;2022-09-13T01:17:54;14.75;;;8.98;;
47860;SDS011;33620;52.340;5.984;2022-09-13T01:20:21;11.40;;;7.40;;
47860;SDS011;33620;52.340;5.984;2022-09-13T01:28:11;15.38;;;8.57;;
47860;SDS011;33620;52.340;5.984;2022-09-13T01:36:40;14.97;;;7.63;;
47860;SDS011;33620;52.340;5.984;2022-09-13T01:42:00;16.70;;;9.25;;
47860;SDS011;33620;52.340;5.984;2022-09-13T01:52:57;21.17;;;9.25;;
47860;SDS011;33620;52.340;5.984;2022-09-13T02:06:33;15.80;;;8.43;;
47860;SDS011;33620;52.340;5.984;2022-09-13T02:09:08;17.63;;;8.40;;
47860;SDS011;33620;52.340;5.984;2022-09-13T02:11:37;16.65;;;8.65;;
47860;SDS011;33620;52.340;5.984;2022-09-13T02:16:50;16.33;;;8.52;;
47860;SDS011;33620;52.340;5.984;2022-09-13T02:19:24;15.57;;;8.70;;
47860;SDS011;33620;52.340;5.984;2022-09-13T02:21:57;16.67;;;9.60;;
47860;SDS011;33620;52.340;5.984;2022-09-13T02:24:25;19.35;;;9.85;;
47860;SDS011;33620;52.340;5.984;2022-09-13T02:26:58;18.80;;;9.90;;
47860;SDS011;33620;52.340;5.984;2022-09-13T02:29:29;18.85;;;9.93;;
47860;SDS011;33620;52.340;5.984;2022-09-13T02:32:30;15.73;;;8.93;;
47860;SDS011;33620;52.340;5.984;2022-09-13T02:34:58;16.35;;;9.30;;
47860;SDS011;33620;52.340;5.984;2022-09-13T02:37:28;16.48;;;9.88;;
47860;SDS011;33620;52.340;5.984;2022-09-13T02:39:58;16.10;;;9.13;;
47860;SDS011;33620;52.340;5.984;2022-09-13T02:42:38;17.30;;;9.60;;
47860;SDS011;33620;52.340;5.984;2022-09-13T02:45:08;19.02;;;10.73;;
47860;SDS011;33620;52.340;5.984;2022-09-13T02:50:14;18.60;;;10.40;;
47860;SDS011;33620;52.340;5.984;2022-09-13T02:58:20;20.67;;;11.98;;
47860;SDS011;33620;52.340;5.984;2022-09-13T03:00:48;17.42;;;10.27;;
47860;SDS011;33620;52.340;5.984;2022-09-13T03:03:15;20.42;;;11.75;;
47860;SDS011;33620;52.340;5.984;2022-09-13T03:05:42;22.50;;;12.50;;
47860;SDS011;33620;52.340;5.984;2022-09-13T03:08:08;25.00;;;13.23;;
47860;SDS011;33620;52.340;5.984;2022-09-13T03:13:35;19.85;;;11.10;;
47860;SDS011;33620;52.340;5.984;2022-09-13T03:22:02;19.98;;;11.45;;
47860;SDS011;33620;52.340;5.984;2022-09-13T03:25:05;22.25;;;11.93;;
47860;SDS011;33620;52.340;5.984;2022-09-13T03:30:15;20.20;;;11.95;;
47860;SDS011;33620;52.340;5.984;2022-09-13T03:33:03;21.05;;;12.40;;
47860;SDS011;33620;52.340;5.984;2022-09-13T03:35:44;22.17;;;13.07;;
47860;SDS011;33620;52.340;5.984;2022-09-13T03:41:04;20.20;;;11.25;;
47860;SDS011;33620;52.340;5.984;2022-09-13T03:46:14;21.08;;;12.80;;
47860;SDS011;33620;52.340;5.984;2022-09-13T03:48:44;24.10;;;13.88;;
47860;SDS011;33620;52.340;5.984;2022-09-13T03:51:09;26.65;;;14.10;;
47860;SDS011;33620;52.340;5.984;2022-09-13T03:53:36;23.58;;;13.55;;
47860;SDS011;33620;52.340;5.984;2022-09-13T03:56:15;25.60;;;13.88;;
47860;SDS011;33620;52.340;5.984;2022-09-13T03:58:43;28.33;;;14.50;;
47860;SDS011;33620;52.340;5.984;2022-09-13T04:01:11;24.45;;;13.93;;
47860;SDS011;33620;52.340;5.984;2022-09-13T04:03:37;25.25;;;13.70;;
47860;SDS011;33620;52.340;5.984;2022-09-13T04:06:03;26.75;;;15.93;;
47860;SDS011;33620;52.340;5.984;2022-09-13T04:08:30;26.10;;;15.50;;
47860;SDS011;33620;52.340;5.984;2022-09-13T04:10:58;28.13;;;15.43;;
47860;SDS011;33620;52.340;5.984;2022-09-13T04:13:24;26.55;;;15.45;;
47860;SDS011;33620;52.340;5.984;2022-09-13T04:15:50;25.00;;;14.57;;
47860;SDS011;33620;52.340;5.984;2022-09-13T04:18:16;24.30;;;14.48;;
47860;SDS011;33620;52.340;5.984;2022-09-13T04:20:41;27.83;;;14.90;;
47860;SDS011;33620;52.340;5.984;2022-09-13T04:23:07;28.13;;;15.38;;
47860;SDS011;33620;52.340;5.984;2022-09-13T04:25:32;24.83;;;14.35;;
47860;SDS011;33620;52.340;5.984;2022-09-13T04:27:58;28.80;;;15.98;;
47860;SDS011;33620;52.340;5.984;2022-09-13T04:30:24;26.52;;;15.07;;
47860;SDS011;33620;52.340;5.984;2022-09-13T04:32:50;26.27;;;15.60;;
47860;SDS011;33620;52.340;5.984;2022-09-13T04:35:15;22.33;;;13.50;;
47860;SDS011;33620;52.340;5.984;2022-09-13T04:37:42;24.83;;;14.80;;
47860;SDS011;33620;52.340;5.984;2022-09-13T04:40:08;25.35;;;14.30;;
47860;SDS011;33620;52.340;5.984;2022-09-13T04:42:35;26.38;;;16.35;;
47860;SDS011;33620;52.340;5.984;2022-09-13T04:45:00;24.33;;;13.30;;
47860;SDS011;33620;52.340;5.984;2022-09-13T04:47:26;25.23;;;14.88;;
47860;SDS011;33620;52.340;5.984;2022-09-13T04:49:51;23.67;;;13.48;;
47860;SDS011;33620;52.340;5.984;2022-09-13T04:52:17;24.60;;;13.18;;
47860;SDS011;33620;52.340;5.984;2022-09-13T04:54:42;24.33;;;13.55;;
47860;SDS011;33620;52.340;5.984;2022-09-13T04:57:08;25.50;;;15.00;;
47860;SDS011;33620;52.340;5.984;2022-09-13T04:59:33;24.67;;;13.93;;
47860;SDS011;33620;52.340;5.984;2022-09-13T05:01:58;23.38;;;13.10;;
47860;SDS011;33620;52.340;5.984;2022-09-13T05:04:24;22.92;;;14.00;;
47860;SDS011;33620;52.340;5.984;2022-09-13T05:06:49;22.88;;;13.82;;
47860;SDS011;33620;52.340;5.984;2022-09-13T05:09:15;24.50;;;13.40;;
47860;SDS011;33620;52.340;5.984;2022-09-13T05:11:40;24.17;;;14.40;;
47860;SDS011;33620;52.340;5.984;2022-09-13T05:14:08;25.45;;;15.05;;
47860;SDS011;33620;52.340;5.984;2022-09-13T05:16:35;22.75;;;14.00;;
47860;SDS011;33620;52.340;5.984;2022-09-13T05:19:00;23.75;;;14.68;;
47860;SDS011;33620;52.340;5.984;2022-09-13T05:21:27;25.45;;;15.07;;
47860;SDS011;33620;52.340;5.984;2022-09-13T05:23:53;27.27;;;16.05;;
47860;SDS011;33620;52.340;5.984;2022-09-13T05:26:20;24.73;;;14.60;;
47860;SDS011;33620;52.340;5.984;2022-09-13T05:28:47;24.88;;;14.65;;
47860;SDS011;33620;52.340;5.984;2022-09-13T05:31:17;29.88;;;14.75;;
47860;SDS011;33620;52.340;5.984;2022-09-13T05:33:52;24.13;;;14.90;;
47860;SDS011;33620;52.340;5.984;2022-09-13T05:36:19;26.58;;;14.88;;
47860;SDS011;33620;52.340;5.984;2022-09-13T05:38:44;24.55;;;14.10;;
47860;SDS011;33620;52.340;5.984;2022-09-13T05:41:10;24.67;;;15.10;;
47860;SDS011;33620;52.340;5.984;2022-09-13T05:43:35;26.23;;;15.65;;
47860;SDS011;33620;52.340;5.984;2022-09-13T05:48:28;24.70;;;13.85;;
47860;SDS011;33620;52.340;5.984;2022-09-13T05:50:54;24.95;;;13.25;;
47860;SDS011;33620;52.340;5.984;2022-09-13T05:53:19;26.15;;;14.65;;
47860;SDS011;33620;52.340;5.984;2022-09-13T05:55:45;26.65;;;14.65;;
47860;SDS011;33620;52.340;5.984;2022-09-13T05:58:10;26.77;;;15.18;;
47860;SDS011;33620;52.340;5.984;2022-09-13T06:00:35;25.75;;;15.60;;
47860;SDS011;33620;52.340;5.984;2022-09-13T06:03:02;26.63;;;14.75;;
47860;SDS011;33620;52.340;5.984;2022-09-13T06:05:27;29.45;;;15.30;;
47860;SDS011;33620;52.340;5.984;2022-09-13T06:07:53;27.40;;;15.82;;
47860;SDS011;33620;52.340;5.984;2022-09-13T06:10:18;26.33;;;15.23;;
47860;SDS011;33620;52.340;5.984;2022-09-13T06:12:44;24.42;;;13.75;;
47860;SDS011;33620;52.340;5.984;2022-09-13T06:15:10;26.55;;;14.65;;
47860;SDS011;33620;52.340;5.984;2022-09-13T06:17:35;24.13;;;13.82;;
47860;SDS011;33620;52.340;5.984;2022-09-13T06:20:01;27.13;;;15.75;;
47860;SDS011;33620;52.340;5.984;2022-09-13T06:22:27;32.15;;;17.83;;
47860;SDS011;33620;52.340;5.984;2022-09-13T06:24:57;29.25;;;15.60;;
47860;SDS011;33620;52.340;5.984;2022-09-13T06:27:25;29.08;;;16.23;;
47860;SDS011;33620;52.340;5.984;2022-09-13T06:29:51;31.17;;;17.58;;
47860;SDS011;33620;52.340;5.984;2022-09-13T06:32:16;30.20;;;16.27;;
47860;SDS011;33620;52.340;5.984;2022-09-13T06:34:41;29.67;;;14.85;;
47860;SDS011;33620;52.340;5.984;2022-09-13T06:37:07;27.17;;;15.65;;
47860;SDS011;33620;52.340;5.984;2022-09-13T06:39:32;28.33;;;14.45;;
47860;SDS011;33620;52.340;5.984;2022-09-13T06:41:58;30.08;;;17.05;;
47860;SDS011;33620;52.340;5.984;2022-09-13T06:44:24;25.95;;;14.98;;
47860;SDS011;33620;52.340;5.984;2022-09-13T06:46:49;29.35;;;16.05;;
47860;SDS011;33620;52.340;5.984;2022-09-13T06:49:14;28.83;;;15.27;;
47860;SDS011;33620;52.340;5.984;2022-09-13T06:51:40;28.38;;;16.02;;
47860;SDS011;33620;52.340;5.984;2022-09-13T06:54:05;28.15;;;16.83;;
47860;SDS011;33620;52.340;5.984;2022-09-13T06:56:32;31.33;;;18.15;;
47860;SDS011;33620;52.340;5.984;2022-09-13T06:58:59;31.58;;;18.33;;
47860;SDS011;33620;52.340;5.984;2022-09-13T07:01:30;25.27;;;15.07;;
47860;SDS011;33620;52.340;5.984;2022-09-13T07:04:01;30.08;;;17.73;;
47860;SDS011;33620;52.340;5.984;2022-09-13T07:06:29;27.60;;;16.02;;
47860;SDS011;33620;52.340;5.984;2022-09-13T07:08:56;31.70;;;16.48;;
47860;SDS011;33620;52.340;5.984;2022-09-13T07:11:24;27.70;;;15.63;;
47860;SDS011;33620;52.340;5.984;2022-09-13T07:13:56;25.05;;;14.50;;
47860;SDS011;33620;52.340;5.984;2022-09-13T07:16:23;26.60;;;14.48;;
47860;SDS011;33620;52.340;5.984;2022-09-13T07:18:54;26.05;;;12.32;;
47860;SDS011;33620;52.340;5.984;2022-09-13T07:21:29;24.75;;;13.63;;
47860;SDS011;33620;52.340;5.984;2022-09-13T07:23:56;26.73;;;14.52;;
47860;SDS011;33620;52.340;5.984;2022-09-13T07:26:22;27.88;;;14.90;;
47860;SDS011;33620;52.340;5.984;2022-09-13T07:28:49;29.25;;;14.85;;
47860;SDS011;33620;52.340;5.984;2022-09-13T07:31:18;26.45;;;13.95;;
47860;SDS011;33620;52.340;5.984;2022-09-13T07:33:45;24.85;;;12.65;;
47860;SDS011;33620;52.340;5.984;2022-09-13T07:36:12;20.10;;;11.05;;
47860;SDS011;33620;52.340;5.984;2022-09-13T07:38:38;21.48;;;12.68;;
47860;SDS011;33620;52.340;5.984;2022-09-13T07:41:06;21.23;;;11.80;;
47860;SDS011;33620;52.340;5.984;2022-09-13T07:43:34;22.27;;;11.07;;
47860;SDS011;33620;52.340;5.984;2022-09-13T07:48:31;19.67;;;9.07;;
47860;SDS011;33620;52.340;5.984;2022-09-13T07:51:03;21.63;;;9.60;;
47860;SDS011;33620;52.340;5.984;2022-09-13T07:53:33;21.77;;;8.90;;
47860;SDS011;33620;52.340;5.984;2022-09-13T07:56:00;18.90;;;8.52;;
47860;SDS011;33620;52.340;5.984;2022-09-13T07:58:27;15.20;;;7.22;;
47860;SDS011;33620;52.340;5.984;2022-09-13T08:00:52;16.63;;;6.80;;
47860;SDS011;33620;52.340;5.984;2022-09-13T08:03:18;11.73;;;5.85;;
47860;SDS011;33620;52.340;5.984;2022-09-13T08:05:43;13.93;;;5.95;;
47860;SDS011;33620;52.340;5.984;2022-09-13T08:08:09;17.00;;;5.88;;
47860;SDS011;33620;52.340;5.984;2022-09-13T08:10:34;11.60;;;5.10;;
47860;SDS011;33620;52.340;5.984;2022-09-13T08:12:59;11.88;;;4.65;;
47860;SDS011;33620;52.340;5.984;2022-09-13T08:15:25;10.82;;;4.30;;
47860;SDS011;33620;52.340;5.984;2022-09-13T08:17:50;10.57;;;4.45;;
47860;SDS011;33620;52.340;5.984;2022-09-13T08:20:17;11.40;;;4.50;;
47860;SDS011;33620;52.340;5.984;2022-09-13T08:22:43;10.52;;;4.60;;
47860;SDS011;33620;52.340;5.984;2022-09-13T08:25:09;16.58;;;6.22;;
47860;SDS011;33620;52.340;5.984;2022-09-13T08:27:34;9.27;;;4.80;;
47860;SDS011;33620;52.340;5.984;2022-09-13T08:30:00;10.38;;;3.92;;
47860;SDS011;33620;52.340;5.984;2022-09-13T08:32:25;8.48;;;3.60;;
47860;SDS011;33620;52.340;5.984;2022-09-13T08:34:50;7.10;;;3.50;;
47860;SDS011;33620;52.340;5.984;2022-09-13T08:37:16;9.98;;;3.42;;
47860;SDS011;33620;52.340;5.984;2022-09-13T08:39:42;9.63;;;3.50;;
47860;SDS011;33620;52.340;5.984;2022-09-13T08:42:15;8.60;;;3.75;;
47860;SDS011;33620;52.340;5.984;2022-09-13T08:45:06;11.10;;;3.10;;
47860;SDS011;33620;52.340;5.984;2022-09-13T08:47:42;6.75;;;2.80;;
47860;SDS011;33620;52.340;5.984;2022-09-13T08:50:18;6.82;;;2.67;;
47860;SDS011;33620;52.340;5.984;2022-09-13T08:55:32;6.03;;;2.30;;
47860;SDS011;33620;52.340;5.984;2022-09-13T08:58:36;7.15;;;2.55;;
47860;SDS011;33620;52.340;5.984;2022-09-13T09:01:06;6.32;;;2.17;;
47860;SDS011;33620;52.340;5.984;2022-09-13T09:03:43;6.03;;;2.60;;
47860;SDS011;33620;52.340;5.984;2022-09-13T09:06:16;4.53;;;1.98;;
47860;SDS011;33620;52.340;5.984;2022-09-13T09:14:29;4.03;;;1.75;;
47860;SDS011;33620;52.340;5.984;2022-09-13T09:17:04;4.90;;;1.90;;
47860;SDS011;33620;52.340;5.984;2022-09-13T09:19:47;2.97;;;1.88;;
47860;SDS011;33620;52.340;5.984;2022-09-13T09:22:20;3.85;;;1.98;;
47860;SDS011;33620;52.340;5.984;2022-09-13T09:24:48;3.80;;;1.83;;
47860;SDS011;33620;52.340;5.984;2022-09-13T09:27:18;4.47;;;1.85;;
47860;SDS011;33620;52.340;5.984;2022-09-13T09:29:45;4.00;;;1.80;;
47860;SDS011;33620;52.340;5.984;2022-09-13T09:37:57;2.45;;;1.20;;
47860;SDS011;33620;52.340;5.984;2022-09-13T09:40:38;5.50;;;1.58;;
47860;SDS011;33620;52.340;5.984;2022-09-13T09:43:11;5.43;;;1.95;;
47860;SDS011;33620;52.340;5.984;2022-09-13T09:45:48;5.80;;;2.63;;
47860;SDS011;33620;52.340;5.984;2022-09-13T09:48:17;4.20;;;1.60;;
47860;SDS011;33620;52.340;5.984;2022-09-13T09:50:55;4.47;;;1.88;;
47860;SDS011;33620;52.340;5.984;2022-09-13T09:53:30;4.25;;;1.67;;
47860;SDS011;33620;52.340;5.984;2022-09-13T09:58:49;3.20;;;1.52;;
47860;SDS011;33620;52.340;5.984;2022-09-13T10:03:50;5.57;;;1.92;;
47860;SDS011;33620;52.340;5.984;2022-09-13T10:06:27;6.22;;;1.60;;
47860;SDS011;33620;52.340;5.984;2022-09-13T10:11:38;6.78;;;1.92;;
47860;SDS011;33620;52.340;5.984;2022-09-13T10:17:13;3.53;;;1.45;;
47860;SDS011;33620;52.340;5.984;2022-09-13T10:20:29;4.10;;;1.70;;
47860;SDS011;33620;52.340;5.984;2022-09-13T10:22:38;4.35;;;1.58;;
47860;SDS011;33620;52.340;5.984;2022-09-13T10:25:27;4.07;;;1.80;;
47860;SDS011;33620;52.340;5.984;2022-09-13T10:27:53;4.68;;;1.50;;
47860;SDS011;33620;52.340;5.984;2022-09-13T10:32:57;4.68;;;1.67;;
47860;SDS011;33620;52.340;5.984;2022-09-13T10:35:23;6.15;;;1.50;;
47860;SDS011;33620;52.340;5.984;2022-09-13T10:37:49;4.45;;;1.70;;
47860;SDS011;33620;52.340;5.984;2022-09-13T10:40:26;7.65;;;2.17;;
47860;SDS011;33620;52.340;5.984;2022-09-13T10:42:57;4.25;;;1.15;;
47860;SDS011;33620;52.340;5.984;2022-09-13T10:45:26;5.88;;;1.55;;
47860;SDS011;33620;52.340;5.984;2022-09-13T10:47:54;1.85;;;1.23;;
47860;SDS011;33620;52.340;5.984;2022-09-13T10:50:28;5.47;;;1.42;;
47860;SDS011;33620;52.340;5.984;2022-09-13T10:53:00;9.07;;;1.70;;
47860;SDS011;33620;52.340;5.984;2022-09-13T11:05:48;3.97;;;1.23;;
47860;SDS011;33620;52.340;5.984;2022-09-13T11:08:37;5.07;;;1.30;;
47860;SDS011;33620;52.340;5.984;2022-09-13T11:14:12;7.65;;;1.42;;
47860;SDS011;33620;52.340;5.984;2022-09-13T11:17:13;5.50;;;1.50;;
47860;SDS011;33620;52.340;5.984;2022-09-13T11:19:48;4.72;;;1.35;;
47860;SDS011;33620;52.340;5.984;2022-09-13T11:28:32;10.25;;;2.15;;
47860;SDS011;33620;52.340;5.984;2022-09-13T11:36:33;6.50;;;1.23;;
47860;SDS011;33620;52.340;5.984;2022-09-13T11:39:10;5.25;;;1.38;;
47860;SDS011;33620;52.340;5.984;2022-09-13T11:41:43;6.00;;;1.13;;
47860;SDS011;33620;52.340;5.984;2022-09-13T11:44:46;2.33;;;1.08;;
47860;SDS011;33620;52.340;5.984;2022-09-13T11:55:57;3.28;;;0.93;;
47860;SDS011;33620;52.340;5.984;2022-09-13T11:58:33;6.40;;;1.63;;
47860;SDS011;33620;52.340;5.984;2022-09-13T12:01:06;5.70;;;1.42;;
47860;SDS011;33620;52.340;5.984;2022-09-13T12:03:46;3.17;;;1.10;;
47860;SDS011;33620;52.340;5.984;2022-09-13T12:06:24;6.22;;;1.10;;
47860;SDS011;33620;52.340;5.984;2022-09-13T12:09:04;5.03;;;1.08;;
47860;SDS011;33620;52.340;5.984;2022-09-13T12:11:38;7.28;;;0.90;;
47860;SDS011;33620;52.340;5.984;2022-09-13T12:14:20;3.80;;;1.30;;
47860;SDS011;33620;52.340;5.984;2022-09-13T12:16:49;5.88;;;1.25;;
47860;SDS011;33620;52.340;5.984;2022-09-13T12:19:22;2.45;;;1.33;;
47860;SDS011;33620;52.340;5.984;2022-09-13T12:21:53;1.95;;;1.00;;
47860;SDS011;33620;52.340;5.984;2022-09-13T12:26:58;7.10;;;1.85;;
47860;SDS011;33620;52.340;5.984;2022-09-13T12:29:33;6.68;;;0.93;;
47860;SDS011;33620;52.340;5.984;2022-09-13T12:34:52;5.82;;;1.17;;
47860;SDS011;33620;52.340;5.984;2022-09-13T12:44:10;6.97;;;1.25;;
47860;SDS011;33620;52.340;5.984;2022-09-13T13:03:22;7.88;;;1.20;;
47860;SDS011;33620;52.340;5.984;2022-09-13T13:05:56;10.77;;;1.40;;
47860;SDS011;33620;52.340;5.984;2022-09-13T13:08:33;7.97;;;1.08;;
47860;SDS011;33620;52.340;5.984;2022-09-13T13:11:09;5.53;;;1.00;;
47860;SDS011;33620;52.340;5.984;2022-09-13T13:13:43;5.63;;;1.23;;
47860;SDS011;33620;52.340;5.984;2022-09-13T13:16:29;4.60;;;1.20;;
47860;SDS011;33620;52.340;5.984;2022-09-13T13:18:58;5.63;;;1.00;;
47860;SDS011;33620;52.340;5.984;2022-09-13T13:31:38;4.65;;;1.17;;
47860;SDS011;33620;52.340;5.984;2022-09-13T13:39:04;5.80;;;1.02;;
47860;SDS011;33620;52.340;5.984;2022-09-13T13:44:00;4.57;;;1.08;;
47860;SDS011;33620;52.340;5.984;2022-09-13T13:46:50;3.00;;;0.93;;
47860;SDS011;33620;52.340;5.984;2022-09-13T13:52:31;9.95;;;1.20;;
47860;SDS011;33620;52.340;5.984;2022-09-13T13:58:36;5.22;;;1.05;;
47860;SDS011;33620;52.340;5.984;2022-09-13T14:00:51;5.10;;;0.93;;
47860;SDS011;33620;52.340;5.984;2022-09-13T14:03:30;4.47;;;1.08;;
47860;SDS011;33620;52.340;5.984;2022-09-13T14:06:02;4.68;;;1.10;;
47860;SDS011;33620;52.340;5.984;2022-09-13T14:08:52;2.47;;;0.90;;
47860;SDS011;33620;52.340;5.984;2022-09-13T14:21:44;3.70;;;0.93;;
47860;SDS011;33620;52.340;5.984;2022-09-13T14:26:48;7.28;;;1.20;;
47860;SDS011;33620;52.340;5.984;2022-09-13T14:29:16;4.55;;;0.73;;
47860;SDS011;33620;52.340;5.984;2022-09-13T14:31:49;4.70;;;1.48;;
47860;SDS011;33620;52.340;5.984;2022-09-13T14:34:20;7.70;;;1.38;;
47860;SDS011;33620;52.340;5.984;2022-09-13T14:36:51;5.35;;;1.35;;
47860;SDS011;33620;52.340;5.984;2022-09-13T14:39:18;4.50;;;1.10;;
47860;SDS011;33620;52.340;5.984;2022-09-13T14:41:44;5.47;;;0.90;;
47860;SDS011;33620;52.340;5.984;2022-09-13T14:44:13;4.13;;;1.30;;
47860;SDS011;33620;52.340;5.984;2022-09-13T14:46:45;6.20;;;1.48;;
47860;SDS011;33620;52.340;5.984;2022-09-13T14:49:30;7.18;;;1.42;;
47860;SDS011;33620;52.340;5.984;2022-09-13T14:52:00;4.80;;;1.00;;
47860;SDS011;33620;52.340;5.984;2022-09-13T14:57:05;6.03;;;0.98;;
47860;SDS011;33620;52.340;5.984;2022-09-13T14:59:41;5.32;;;1.10;;
47860;SDS011;33620;52.340;5.984;2022-09-13T15:02:30;6.18;;;1.33;;
47860;SDS011;33620;52.340;5.984;2022-09-13T15:05:00;3.35;;;1.00;;
47860;SDS011;33620;52.340;5.984;2022-09-13T15:07:34;11.00;;;1.70;;
47860;SDS011;33620;52.340;5.984;2022-09-13T15:12:36;6.22;;;1.33;;
47860;SDS011;33620;52.340;5.984;2022-09-13T15:17:57;8.50;;;1.40;;
47860;SDS011;33620;52.340;5.984;2022-09-13T15:20:24;7.75;;;1.15;;
47860;SDS011;33620;52.340;5.984;2022-09-13T15:22:55;6.25;;;1.15;;
47860;SDS011;33620;52.340;5.984;2022-09-13T15:25:27;5.03;;;1.20;;
47860;SDS011;33620;52.340;5.984;2022-09-13T15:27:54;7.57;;;1.40;;
47860;SDS011;33620;52.340;5.984;2022-09-13T15:30:25;5.93;;;1.27;;
47860;SDS011;33620;52.340;5.984;2022-09-13T15:35:35;4.55;;;1.70;;
47860;SDS011;33620;52.340;5.984;2022-09-13T15:41:11;9.68;;;1.63;;
47860;SDS011;33620;52.340;5.984;2022-09-13T15:43:43;7.68;;;1.45;;
47860;SDS011;33620;52.340;5.984;2022-09-13T15:46:15;6.75;;;1.48;;
47860;SDS011;33620;52.340;5.984;2022-09-13T15:48:42;6.45;;;1.27;;
47860;SDS011;33620;52.340;5.984;2022-09-13T15:51:14;5.00;;;1.23;;
47860;SDS011;33620;52.340;5.984;2022-09-13T15:53:40;3.90;;;1.20;;
47860;SDS011;33620;52.340;5.984;2022-09-13T15:56:07;4.50;;;0.98;;
47860;SDS011;33620;52.340;5.984;2022-09-13T15:58:36;4.03;;;0.98;;
47860;SDS011;33620;52.340;5.984;2022-09-13T16:01:01;5.43;;;1.10;;
47860;SDS011;33620;52.340;5.984;2022-09-13T16:03:27;5.68;;;1.20;;
47860;SDS011;33620;52.340;5.984;2022-09-13T16:05:53;5.43;;;1.00;;
47860;SDS011;33620;52.340;5.984;2022-09-13T16:08:18;6.97;;;1.35;;
47860;SDS011;33620;52.340;5.984;2022-09-13T16:10:44;11.80;;;1.58;;
47860;SDS011;33620;52.340;5.984;2022-09-13T16:13:10;5.35;;;1.02;;
47860;SDS011;33620;52.340;5.984;2022-09-13T16:15:35;5.90;;;1.40;;
47860;SDS011;33620;52.340;5.984;2022-09-13T16:18:01;9.35;;;1.17;;
47860;SDS011;33620;52.340;5.984;2022-09-13T16:20:26;4.90;;;1.63;;
47860;SDS011;33620;52.340;5.984;2022-09-13T16:22:52;8.38;;;1.20;;
47860;SDS011;33620;52.340;5.984;2022-09-13T16:25:18;3.20;;;1.38;;
47860;SDS011;33620;52.340;5.984;2022-09-13T16:27:43;5.65;;;1.33;;
47860;SDS011;33620;52.340;5.984;2022-09-13T16:30:13;3.47;;;0.65;;
47860;SDS011;33620;52.340;5.984;2022-09-13T16:32:43;8.65;;;1.33;;
47860;SDS011;33620;52.340;5.984;2022-09-13T16:35:09;5.47;;;1.27;;
47860;SDS011;33620;52.340;5.984;2022-09-13T16:37:35;8.13;;;1.17;;
47860;SDS011;33620;52.340;5.984;2022-09-13T16:40:01;9.80;;;1.23;;
47860;SDS011;33620;52.340;5.984;2022-09-13T16:42:27;10.38;;;1.60;;
47860;SDS011;33620;52.340;5.984;2022-09-13T16:44:53;6.20;;;1.15;;
47860;SDS011;33620;52.340;5.984;2022-09-13T16:47:18;5.93;;;1.52;;
47860;SDS011;33620;52.340;5.984;2022-09-13T16:49:45;7.72;;;1.20;;
47860;SDS011;33620;52.340;5.984;2022-09-13T16:52:10;7.97;;;1.30;;
47860;SDS011;33620;52.340;5.984;2022-09-13T16:54:36;5.78;;;1.20;;
47860;SDS011;33620;52.340;5.984;2022-09-13T16:57:02;7.68;;;1.20;;
47860;SDS011;33620;52.340;5.984;2022-09-13T16:59:29;5.35;;;1.67;;
47860;SDS011;33620;52.340;5.984;2022-09-13T17:01:55;10.85;;;1.42;;
47860;SDS011;33620;52.340;5.984;2022-09-13T17:04:21;7.25;;;1.75;;
47860;SDS011;33620;52.340;5.984;2022-09-13T17:06:47;7.00;;;1.67;;
47860;SDS011;33620;52.340;5.984;2022-09-13T17:09:13;7.60;;;1.60;;
47860;SDS011;33620;52.340;5.984;2022-09-13T17:11:39;8.20;;;1.38;;
47860;SDS011;33620;52.340;5.984;2022-09-13T17:14:07;6.18;;;1.15;;
47860;SDS011;33620;52.340;5.984;2022-09-13T17:16:39;9.32;;;1.80;;
47860;SDS011;33620;52.340;5.984;2022-09-13T17:19:13;6.82;;;1.35;;
47860;SDS011;33620;52.340;5.984;2022-09-13T17:21:41;5.13;;;1.40;;
47860;SDS011;33620;52.340;5.984;2022-09-13T17:24:06;5.75;;;1.25;;
47860;SDS011;33620;52.340;5.984;2022-09-13T17:26:32;8.60;;;1.40;;
47860;SDS011;33620;52.340;5.984;2022-09-13T17:28:58;3.38;;;1.20;;
47860;SDS011;33620;52.340;5.984;2022-09-13T17:31:23;7.25;;;1.63;;
47860;SDS011;33620;52.340;5.984;2022-09-13T17:33:48;7.55;;;1.80;;
47860;SDS011;33620;52.340;5.984;2022-09-13T17:36:15;6.82;;;1.60;;
47860;SDS011;33620;52.340;5.984;2022-09-13T17:38:41;8.88;;;1.88;;
47860;SDS011;33620;52.340;5.984;2022-09-13T17:41:10;10.65;;;1.45;;
47860;SDS011;33620;52.340;5.984;2022-09-13T17:43:40;2.42;;;1.00;;
47860;SDS011;33620;52.340;5.984;2022-09-13T17:46:09;6.07;;;1.40;;
47860;SDS011;33620;52.340;5.984;2022-09-13T17:48:36;7.45;;;1.42;;
47860;SDS011;33620;52.340;5.984;2022-09-13T17:51:43;7.10;;;1.55;;
47860;SDS011;33620;52.340;5.984;2022-09-13T17:53:55;13.88;;;1.90;;
47860;SDS011;33620;52.340;5.984;2022-09-13T17:56:26;9.05;;;1.77;;
47860;SDS011;33620;52.340;5.984;2022-09-13T17:59:01;7.80;;;1.90;;
47860;SDS011;33620;52.340;5.984;2022-09-13T18:01:29;9.13;;;1.60;;
47860;SDS011;33620;52.340;5.984;2022-09-13T18:03:54;12.55;;;2.00;;
47860;SDS011;33620;52.340;5.984;2022-09-13T18:06:20;7.03;;;1.77;;
47860;SDS011;33620;52.340;5.984;2022-09-13T18:08:46;3.97;;;1.60;;
47860;SDS011;33620;52.340;5.984;2022-09-13T18:11:12;7.50;;;1.75;;
47860;SDS011;33620;52.340;5.984;2022-09-13T18:13:40;9.13;;;1.80;;
47860;SDS011;33620;52.340;5.984;2022-09-13T18:16:08;9.68;;;2.20;;
47860;SDS011;33620;52.340;5.984;2022-09-13T18:18:37;10.82;;;2.00;;
47860;SDS011;33620;52.340;5.984;2022-09-13T18:21:04;8.80;;;1.80;;
47860;SDS011;33620;52.340;5.984;2022-09-13T18:23:30;5.78;;;1.77;;